sensor_id;sensor_type;location;lat;lon;timestamp;temperature;humidity
10344;DHT22;5217;43.960;10.954;2023-04-24T00:00:01;19.00;99.60
10344;DHT22;5217;43.960;10.954;2023-04-24T00:02:32;19.00;99.60
10344;DHT22;5217;43.960;10.954;2023-04-24T00:05:01;19.00;99.60
10344;DHT22;5217;43.960;10.954;2023-04-24T00:07:31;19.00;99.60
10344;DHT22;5217;43.960;10.954;2023-04-24T00:09:59;19.00;99.60
10344;DHT22;5217;43.960;10.954;2023-04-24T00:12:28;19.00;99.60
10344;DHT22;5217;43.960;10.954;2023-04-24T00:14:58;19.00;99.60
10344;DHT22;5217;43.960;10.954;2023-04-24T00:17:26;19.00;99.60
10344;DHT22;5217;43.960;10.954;2023-04-24T00:19:54;19.00;99.50
10344;DHT22;5217;43.960;10.954;2023-04-24T00:22:25;19.10;99.50
10344;DHT22;5217;43.960;10.954;2023-04-24T00:24:54;19.10;99.30
10344;DHT22;5217;43.960;10.954;2023-04-24T00:27:22;19.10;98.90
10344;DHT22;5217;43.960;10.954;2023-04-24T00:29:51;19.00;98.70
10344;DHT22;5217;43.960;10.954;2023-04-24T00:32:20;19.00;98.40
10344;DHT22;5217;43.960;10.954;2023-04-24T00:34:49;19.00;98.40
10344;DHT22;5217;43.960;10.954;2023-04-24T00:37:17;19.00;98.30
10344;DHT22;5217;43.960;10.954;2023-04-24T00:39:45;19.00;98.20
10344;DHT22;5217;43.960;10.954;2023-04-24T00:42:14;19.00;98.20
10344;DHT22;5217;43.960;10.954;2023-04-24T00:44:42;19.00;98.30
10344;DHT22;5217;43.960;10.954;2023-04-24T00:47:11;19.10;98.50
10344;DHT22;5217;43.960;10.954;2023-04-24T00:49:42;19.00;98.60
10344;DHT22;5217;43.960;10.954;2023-04-24T00:52:11;19.00;98.70
10344;DHT22;5217;43.960;10.954;2023-04-24T00:54:39;19.10;98.70
10344;DHT22;5217;43.960;10.954;2023-04-24T00:57:07;19.10;98.60
10344;DHT22;5217;43.960;10.954;2023-04-24T00:59:36;19.10;98.60
10344;DHT22;5217;43.960;10.954;2023-04-24T01:02:04;19.10;98.40
10344;DHT22;5217;43.960;10.954;2023-04-24T01:04:33;19.00;98.30
10344;DHT22;5217;43.960;10.954;2023-04-24T01:07:03;19.00;98.30
10344;DHT22;5217;43.960;10.954;2023-04-24T01:09:37;19.00;98.30
10344;DHT22;5217;43.960;10.954;2023-04-24T01:12:07;19.00;98.30
10344;DHT22;5217;43.960;10.954;2023-04-24T01:14:36;19.00;98.40
10344;DHT22;5217;43.960;10.954;2023-04-24T01:17:05;18.90;98.40
10344;DHT22;5217;43.960;10.954;2023-04-24T01:19:34;18.90;98.60
10344;DHT22;5217;43.960;10.954;2023-04-24T01:22:08;18.90;98.60
10344;DHT22;5217;43.960;10.954;2023-04-24T01:24:37;18.90;98.70
10344;DHT22;5217;43.960;10.954;2023-04-24T01:27:06;18.90;98.70
10344;DHT22;5217;43.960;10.954;2023-04-24T01:29:35;18.90;98.70
10344;DHT22;5217;43.960;10.954;2023-04-24T01:32:04;18.90;98.80
10344;DHT22;5217;43.960;10.954;2023-04-24T01:34:32;18.90;98.80
10344;DHT22;5217;43.960;10.954;2023-04-24T01:37:01;18.90;98.90
10344;DHT22;5217;43.960;10.954;2023-04-24T01:39:31;18.80;99.00
10344;DHT22;5217;43.960;10.954;2023-04-24T01:42:00;18.80;99.40
10344;DHT22;5217;43.960;10.954;2023-04-24T01:44:29;18.80;99.20
10344;DHT22;5217;43.960;10.954;2023-04-24T01:46:58;18.80;99.30
10344;DHT22;5217;43.960;10.954;2023-04-24T01:49:28;18.70;99.30
10344;DHT22;5217;43.960;10.954;2023-04-24T01:51:56;18.70;99.40
10344;DHT22;5217;43.960;10.954;2023-04-24T01:54:24;18.70;99.70
10344;DHT22;5217;43.960;10.954;2023-04-24T01:56:54;18.70;99.80
10344;DHT22;5217;43.960;10.954;2023-04-24T01:59:23;18.70;99.90
10344;DHT22;5217;43.960;10.954;2023-04-24T02:01:53;18.70;99.90
10344;DHT22;5217;43.960;10.954;2023-04-24T02:04:21;18.70;99.90
10344;DHT22;5217;43.960;10.954;2023-04-24T02:06:50;18.80;99.90
10344;DHT22;5217;43.960;10.954;2023-04-24T02:09:18;18.80;99.90
10344;DHT22;5217;43.960;10.954;2023-04-24T02:11:46;18.80;99.90
10344;DHT22;5217;43.960;10.954;2023-04-24T02:14:16;18.80;99.90
10344;DHT22;5217;43.960;10.954;2023-04-24T02:16:44;18.80;99.90
10344;DHT22;5217;43.960;10.954;2023-04-24T02:19:13;18.80;99.90
10344;DHT22;5217;43.960;10.954;2023-04-24T02:21:41;18.80;99.90
10344;DHT22;5217;43.960;10.954;2023-04-24T02:24:09;18.80;99.90
10344;DHT22;5217;43.960;10.954;2023-04-24T02:26:37;18.80;99.90
10344;DHT22;5217;43.960;10.954;2023-04-24T02:29:06;18.80;99.90
10344;DHT22;5217;43.960;10.954;2023-04-24T02:31:36;18.80;99.90
10344;DHT22;5217;43.960;10.954;2023-04-24T02:34:04;18.80;99.90
10344;DHT22;5217;43.960;10.954;2023-04-24T02:36:35;18.80;99.90
10344;DHT22;5217;43.960;10.954;2023-04-24T02:39:03;18.80;99.90
10344;DHT22;5217;43.960;10.954;2023-04-24T02:41:32;18.70;99.90
10344;DHT22;5217;43.960;10.954;2023-04-24T02:44:00;18.70;99.90
10344;DHT22;5217;43.960;10.954;2023-04-24T02:46:28;18.70;99.90
10344;DHT22;5217;43.960;10.954;2023-04-24T02:48:58;18.60;99.90
10344;DHT22;5217;43.960;10.954;2023-04-24T02:51:26;18.60;99.90
10344;DHT22;5217;43.960;10.954;2023-04-24T02:53:54;18.60;99.90
10344;DHT22;5217;43.960;10.954;2023-04-24T02:56:23;18.60;99.90
10344;DHT22;5217;43.960;10.954;2023-04-24T02:58:51;18.60;99.90
10344;DHT22;5217;43.960;10.954;2023-04-24T03:01:19;18.60;99.90
10344;DHT22;5217;43.960;10.954;2023-04-24T03:03:48;18.60;99.90
10344;DHT22;5217;43.960;10.954;2023-04-24T03:06:18;18.60;99.90
10344;DHT22;5217;43.960;10.954;2023-04-24T03:08:48;18.60;99.90
10344;DHT22;5217;43.960;10.954;2023-04-24T03:11:16;18.60;99.90
10344;DHT22;5217;43.960;10.954;2023-04-24T03:13:45;18.60;99.90
10344;DHT22;5217;43.960;10.954;2023-04-24T03:16:13;18.60;99.90
10344;DHT22;5217;43.960;10.954;2023-04-24T03:18:41;18.60;99.90
10344;DHT22;5217;43.960;10.954;2023-04-24T03:21:10;18.60;99.90
10344;DHT22;5217;43.960;10.954;2023-04-24T03:23:39;18.50;99.90
10344;DHT22;5217;43.960;10.954;2023-04-24T03:26:08;18.50;99.90
10344;DHT22;5217;43.960;10.954;2023-04-24T03:28:36;18.50;99.90
10344;DHT22;5217;43.960;10.954;2023-04-24T03:31:04;18.50;99.90
10344;DHT22;5217;43.960;10.954;2023-04-24T03:33:33;18.50;99.90
10344;DHT22;5217;43.960;10.954;2023-04-24T03:36:01;18.50;99.90
10344;DHT22;5217;43.960;10.954;2023-04-24T03:38:29;18.50;99.90
10344;DHT22;5217;43.960;10.954;2023-04-24T03:40:59;18.50;99.90
10344;DHT22;5217;43.960;10.954;2023-04-24T03:43:27;18.50;99.90
10344;DHT22;5217;43.960;10.954;2023-04-24T03:45:56;18.50;99.90
10344;DHT22;5217;43.960;10.954;2023-04-24T03:48:24;18.50;99.90
10344;DHT22;5217;43.960;10.954;2023-04-24T03:50:52;18.50;99.90
10344;DHT22;5217;43.960;10.954;2023-04-24T03:53:21;18.50;99.90
10344;DHT22;5217;43.960;10.954;2023-04-24T03:55:49;18.50;99.90
10344;DHT22;5217;43.960;10.954;2023-04-24T03:58:19;18.50;99.90
10344;DHT22;5217;43.960;10.954;2023-04-24T04:00:47;18.50;99.90
10344;DHT22;5217;43.960;10.954;2023-04-24T04:03:16;18.50;99.90
10344;DHT22;5217;43.960;10.954;2023-04-24T04:05:45;18.50;99.90
10344;DHT22;5217;43.960;10.954;2023-04-24T04:08:13;18.50;99.90
10344;DHT22;5217;43.960;10.954;2023-04-24T04:10:42;18.50;99.90
10344;DHT22;5217;43.960;10.954;2023-04-24T04:13:10;18.50;99.90
10344;DHT22;5217;43.960;10.954;2023-04-24T04:15:40;18.40;99.90
10344;DHT22;5217;43.960;10.954;2023-04-24T04:18:08;18.40;99.90
10344;DHT22;5217;43.960;10.954;2023-04-24T04:20:37;18.40;99.90
10344;DHT22;5217;43.960;10.954;2023-04-24T04:23:05;18.40;99.90
10344;DHT22;5217;43.960;10.954;2023-04-24T04:25:34;18.40;99.90
10344;DHT22;5217;43.960;10.954;2023-04-24T04:28:02;18.40;99.90
10344;DHT22;5217;43.960;10.954;2023-04-24T04:30:30;18.40;99.90
10344;DHT22;5217;43.960;10.954;2023-04-24T04:33:00;18.40;99.90
10344;DHT22;5217;43.960;10.954;2023-04-24T04:35:29;18.40;99.90
10344;DHT22;5217;43.960;10.954;2023-04-24T04:37:57;18.40;99.90
10344;DHT22;5217;43.960;10.954;2023-04-24T04:40:26;18.40;99.90
10344;DHT22;5217;43.960;10.954;2023-04-24T04:42:55;18.40;99.90
10344;DHT22;5217;43.960;10.954;2023-04-24T04:45:24;18.40;99.90
10344;DHT22;5217;43.960;10.954;2023-04-24T04:47:54;18.30;99.90
10344;DHT22;5217;43.960;10.954;2023-04-24T04:50:25;18.30;99.90
10344;DHT22;5217;43.960;10.954;2023-04-24T04:52:53;18.30;99.90
10344;DHT22;5217;43.960;10.954;2023-04-24T04:55:21;18.40;99.90
10344;DHT22;5217;43.960;10.954;2023-04-24T04:57:51;18.30;99.90
10344;DHT22;5217;43.960;10.954;2023-04-24T05:00:19;18.30;99.90
10344;DHT22;5217;43.960;10.954;2023-04-24T05:02:48;18.30;99.90
10344;DHT22;5217;43.960;10.954;2023-04-24T05:05:16;18.40;99.90
10344;DHT22;5217;43.960;10.954;2023-04-24T05:07:47;18.30;99.90
10344;DHT22;5217;43.960;10.954;2023-04-24T05:10:15;18.30;99.90
10344;DHT22;5217;43.960;10.954;2023-04-24T05:12:44;18.30;99.90
10344;DHT22;5217;43.960;10.954;2023-04-24T05:15:12;18.30;99.90
10344;DHT22;5217;43.960;10.954;2023-04-24T05:17:41;18.30;99.90
10344;DHT22;5217;43.960;10.954;2023-04-24T05:20:09;18.30;99.90
10344;DHT22;5217;43.960;10.954;2023-04-24T05:22:37;18.30;99.90
10344;DHT22;5217;43.960;10.954;2023-04-24T05:25:08;18.30;99.90
10344;DHT22;5217;43.960;10.954;2023-04-24T05:27:36;18.40;99.90
10344;DHT22;5217;43.960;10.954;2023-04-24T05:30:05;18.40;99.90
10344;DHT22;5217;43.960;10.954;2023-04-24T05:32:34;18.30;99.90
10344;DHT22;5217;43.960;10.954;2023-04-24T05:35:03;18.30;99.90
10344;DHT22;5217;43.960;10.954;2023-04-24T05:37:34;18.30;99.90
10344;DHT22;5217;43.960;10.954;2023-04-24T05:40:03;18.30;99.90
10344;DHT22;5217;43.960;10.954;2023-04-24T05:42:33;18.30;99.90
10344;DHT22;5217;43.960;10.954;2023-04-24T05:45:02;18.30;99.90
10344;DHT22;5217;43.960;10.954;2023-04-24T05:47:31;18.30;99.90
10344;DHT22;5217;43.960;10.954;2023-04-24T05:49:59;18.30;99.90
10344;DHT22;5217;43.960;10.954;2023-04-24T05:52:27;18.20;99.90
10344;DHT22;5217;43.960;10.954;2023-04-24T05:54:56;18.30;99.90
10344;DHT22;5217;43.960;10.954;2023-04-24T05:57:24;18.30;99.90
10344;DHT22;5217;43.960;10.954;2023-04-24T05:59:54;18.30;99.90
10344;DHT22;5217;43.960;10.954;2023-04-24T06:02:22;18.20;99.90
10344;DHT22;5217;43.960;10.954;2023-04-24T06:04:51;18.20;99.90
10344;DHT22;5217;43.960;10.954;2023-04-24T06:07:20;18.20;99.90
10344;DHT22;5217;43.960;10.954;2023-04-24T06:09:48;18.20;99.90
10344;DHT22;5217;43.960;10.954;2023-04-24T06:12:16;18.20;99.90
10344;DHT22;5217;43.960;10.954;2023-04-24T06:14:45;18.20;99.90
10344;DHT22;5217;43.960;10.954;2023-04-24T06:17:15;18.20;99.80
10344;DHT22;5217;43.960;10.954;2023-04-24T06:19:43;18.20;99.80
10344;DHT22;5217;43.960;10.954;2023-04-24T06:22:11;18.20;99.70
10344;DHT22;5217;43.960;10.954;2023-04-24T06:24:40;18.20;99.80
10344;DHT22;5217;43.960;10.954;2023-04-24T06:27:09;18.30;99.90
10344;DHT22;5217;43.960;10.954;2023-04-24T06:29:38;18.20;99.90
10344;DHT22;5217;43.960;10.954;2023-04-24T06:32:07;18.30;99.90
10344;DHT22;5217;43.960;10.954;2023-04-24T06:34:37;18.30;99.80
10344;DHT22;5217;43.960;10.954;2023-04-24T06:37:05;18.30;99.40
10344;DHT22;5217;43.960;10.954;2023-04-24T06:39:34;18.40;99.50
10344;DHT22;5217;43.960;10.954;2023-04-24T06:42:02;18.40;99.50
10344;DHT22;5217;43.960;10.954;2023-04-24T06:44:30;18.40;99.10
10344;DHT22;5217;43.960;10.954;2023-04-24T06:46:59;18.40;99.00
10344;DHT22;5217;43.960;10.954;2023-04-24T06:49:27;18.40;99.10
10344;DHT22;5217;43.960;10.954;2023-04-24T06:51:57;18.50;99.20
10344;DHT22;5217;43.960;10.954;2023-04-24T06:54:25;18.50;98.70
10344;DHT22;5217;43.960;10.954;2023-04-24T06:56:53;18.50;98.80
10344;DHT22;5217;43.960;10.954;2023-04-24T06:59:22;18.50;98.60
10344;DHT22;5217;43.960;10.954;2023-04-24T07:01:50;18.50;98.60
10344;DHT22;5217;43.960;10.954;2023-04-24T07:04:21;18.50;98.60
10344;DHT22;5217;43.960;10.954;2023-04-24T07:06:52;18.40;98.40
10344;DHT22;5217;43.960;10.954;2023-04-24T07:09:25;18.50;98.50
10344;DHT22;5217;43.960;10.954;2023-04-24T07:11:54;18.50;98.40
10344;DHT22;5217;43.960;10.954;2023-04-24T07:14:23;18.50;98.60
10344;DHT22;5217;43.960;10.954;2023-04-24T07:16:51;18.50;98.40
10344;DHT22;5217;43.960;10.954;2023-04-24T07:19:19;18.40;98.60
10344;DHT22;5217;43.960;10.954;2023-04-24T07:21:48;18.40;98.40
10344;DHT22;5217;43.960;10.954;2023-04-24T07:24:16;18.40;98.30
10344;DHT22;5217;43.960;10.954;2023-04-24T07:26:46;18.40;98.20
10344;DHT22;5217;43.960;10.954;2023-04-24T07:29:14;18.40;98.10
10344;DHT22;5217;43.960;10.954;2023-04-24T07:31:43;18.40;98.40
10344;DHT22;5217;43.960;10.954;2023-04-24T07:34:11;18.50;98.70
10344;DHT22;5217;43.960;10.954;2023-04-24T07:36:40;18.50;98.80
10344;DHT22;5217;43.960;10.954;2023-04-24T07:39:09;18.50;99.10
10344;DHT22;5217;43.960;10.954;2023-04-24T07:41:37;18.50;98.80
10344;DHT22;5217;43.960;10.954;2023-04-24T07:44:07;18.50;99.10
10344;DHT22;5217;43.960;10.954;2023-04-24T07:46:35;18.50;99.50
10344;DHT22;5217;43.960;10.954;2023-04-24T07:49:04;18.50;99.30
10344;DHT22;5217;43.960;10.954;2023-04-24T07:51:40;18.50;99.60
10344;DHT22;5217;43.960;10.954;2023-04-24T07:54:09;18.40;99.60
10344;DHT22;5217;43.960;10.954;2023-04-24T07:56:37;18.40;99.60
10344;DHT22;5217;43.960;10.954;2023-04-24T07:59:08;18.40;99.70
10344;DHT22;5217;43.960;10.954;2023-04-24T08:01:36;18.40;99.70
10344;DHT22;5217;43.960;10.954;2023-04-24T08:04:05;18.40;99.70
10344;DHT22;5217;43.960;10.954;2023-04-24T08:06:34;18.40;99.80
10344;DHT22;5217;43.960;10.954;2023-04-24T08:09:03;18.40;99.80
10344;DHT22;5217;43.960;10.954;2023-04-24T08:11:31;18.50;99.90
10344;DHT22;5217;43.960;10.954;2023-04-24T08:13:59;18.50;99.90
10344;DHT22;5217;43.960;10.954;2023-04-24T08:16:29;18.60;99.90
10344;DHT22;5217;43.960;10.954;2023-04-24T08:18:58;18.60;99.90
10344;DHT22;5217;43.960;10.954;2023-04-24T08:21:26;18.60;99.90
10344;DHT22;5217;43.960;10.954;2023-04-24T08:23:54;18.60;99.80
10344;DHT22;5217;43.960;10.954;2023-04-24T08:26:23;18.60;99.90
10344;DHT22;5217;43.960;10.954;2023-04-24T08:28:51;18.60;99.90
10344;DHT22;5217;43.960;10.954;2023-04-24T08:31:20;18.60;99.70
10344;DHT22;5217;43.960;10.954;2023-04-24T08:33:51;18.60;99.40
10344;DHT22;5217;43.960;10.954;2023-04-24T08:36:19;18.60;99.20
10344;DHT22;5217;43.960;10.954;2023-04-24T08:38:49;18.60;99.20
10344;DHT22;5217;43.960;10.954;2023-04-24T08:41:18;18.70;99.30
10344;DHT22;5217;43.960;10.954;2023-04-24T08:43:48;18.70;99.30
10344;DHT22;5217;43.960;10.954;2023-04-24T08:46:17;18.70;98.50
10344;DHT22;5217;43.960;10.954;2023-04-24T08:48:46;18.80;98.60
10344;DHT22;5217;43.960;10.954;2023-04-24T08:51:17;18.80;98.50
10344;DHT22;5217;43.960;10.954;2023-04-24T08:53:46;18.80;98.40
10344;DHT22;5217;43.960;10.954;2023-04-24T08:56:14;18.80;98.30
10344;DHT22;5217;43.960;10.954;2023-04-24T08:58:43;18.80;97.70
10344;DHT22;5217;43.960;10.954;2023-04-24T09:01:12;18.80;97.80
10344;DHT22;5217;43.960;10.954;2023-04-24T09:03:41;18.80;97.50
10344;DHT22;5217;43.960;10.954;2023-04-24T09:06:10;18.80;97.40
10344;DHT22;5217;43.960;10.954;2023-04-24T09:08:41;18.80;97.40
10344;DHT22;5217;43.960;10.954;2023-04-24T09:11:11;18.80;97.40
10344;DHT22;5217;43.960;10.954;2023-04-24T09:13:39;18.90;97.50
10344;DHT22;5217;43.960;10.954;2023-04-24T09:16:08;18.90;97.90
10344;DHT22;5217;43.960;10.954;2023-04-24T09:18:36;18.90;97.80
10344;DHT22;5217;43.960;10.954;2023-04-24T09:21:08;18.90;97.40
10344;DHT22;5217;43.960;10.954;2023-04-24T09:23:36;18.90;97.20
10344;DHT22;5217;43.960;10.954;2023-04-24T09:26:06;18.90;97.20
10344;DHT22;5217;43.960;10.954;2023-04-24T09:28:39;19.00;97.20
10344;DHT22;5217;43.960;10.954;2023-04-24T09:31:09;18.90;97.20
10344;DHT22;5217;43.960;10.954;2023-04-24T09:33:38;18.90;97.00
10344;DHT22;5217;43.960;10.954;2023-04-24T09:36:06;18.90;96.60
10344;DHT22;5217;43.960;10.954;2023-04-24T09:38:36;18.90;96.30
10344;DHT22;5217;43.960;10.954;2023-04-24T09:41:07;18.90;96.30
10344;DHT22;5217;43.960;10.954;2023-04-24T09:43:36;18.90;96.20
10344;DHT22;5217;43.960;10.954;2023-04-24T09:46:06;18.90;96.40
10344;DHT22;5217;43.960;10.954;2023-04-24T09:48:37;18.90;96.50
10344;DHT22;5217;43.960;10.954;2023-04-24T09:51:07;18.90;97.10
10344;DHT22;5217;43.960;10.954;2023-04-24T09:53:37;18.90;97.20
10344;DHT22;5217;43.960;10.954;2023-04-24T09:56:09;19.00;97.50
10344;DHT22;5217;43.960;10.954;2023-04-24T09:58:39;19.00;97.10
10344;DHT22;5217;43.960;10.954;2023-04-24T10:01:07;19.00;97.20
10344;DHT22;5217;43.960;10.954;2023-04-24T10:03:36;19.00;96.90
10344;DHT22;5217;43.960;10.954;2023-04-24T10:06:07;19.00;97.10
10344;DHT22;5217;43.960;10.954;2023-04-24T10:08:39;19.00;97.00
10344;DHT22;5217;43.960;10.954;2023-04-24T10:11:09;19.00;96.80
10344;DHT22;5217;43.960;10.954;2023-04-24T10:13:39;19.00;96.40
10344;DHT22;5217;43.960;10.954;2023-04-24T10:16:08;19.00;95.90
10344;DHT22;5217;43.960;10.954;2023-04-24T10:18:38;19.00;95.90
10344;DHT22;5217;43.960;10.954;2023-04-24T10:21:07;19.00;96.00
10344;DHT22;5217;43.960;10.954;2023-04-24T10:23:36;19.10;96.00
10344;DHT22;5217;43.960;10.954;2023-04-24T10:26:05;19.10;96.40
10344;DHT22;5217;43.960;10.954;2023-04-24T10:28:36;19.10;96.40
10344;DHT22;5217;43.960;10.954;2023-04-24T10:31:05;19.20;96.60
10344;DHT22;5217;43.960;10.954;2023-04-24T10:33:33;19.20;96.30
10344;DHT22;5217;43.960;10.954;2023-04-24T10:36:02;19.30;96.20
10344;DHT22;5217;43.960;10.954;2023-04-24T10:38:31;19.30;95.60
10344;DHT22;5217;43.960;10.954;2023-04-24T10:41:07;19.30;95.60
10344;DHT22;5217;43.960;10.954;2023-04-24T10:43:39;19.30;95.90
10344;DHT22;5217;43.960;10.954;2023-04-24T10:46:08;19.30;95.70
10344;DHT22;5217;43.960;10.954;2023-04-24T10:48:42;19.40;96.30
10344;DHT22;5217;43.960;10.954;2023-04-24T10:51:12;19.50;95.30
10344;DHT22;5217;43.960;10.954;2023-04-24T10:53:41;19.50;96.30
10344;DHT22;5217;43.960;10.954;2023-04-24T10:56:09;19.40;95.60
10344;DHT22;5217;43.960;10.954;2023-04-24T10:58:41;19.50;95.90
10344;DHT22;5217;43.960;10.954;2023-04-24T11:01:23;19.50;95.30
10344;DHT22;5217;43.960;10.954;2023-04-24T11:03:55;19.60;95.30
10344;DHT22;5217;43.960;10.954;2023-04-24T11:06:30;19.70;95.60
10344;DHT22;5217;43.960;10.954;2023-04-24T11:09:03;19.80;95.90
10344;DHT22;5217;43.960;10.954;2023-04-24T11:11:32;19.80;95.50
10344;DHT22;5217;43.960;10.954;2023-04-24T11:14:04;19.90;95.40
10344;DHT22;5217;43.960;10.954;2023-04-24T11:16:35;19.90;95.40
10344;DHT22;5217;43.960;10.954;2023-04-24T11:19:07;19.90;95.50
10344;DHT22;5217;43.960;10.954;2023-04-24T11:21:41;20.00;95.70
10344;DHT22;5217;43.960;10.954;2023-04-24T11:24:31;20.00;95.60
10344;DHT22;5217;43.960;10.954;2023-04-24T11:27:05;20.10;95.60
10344;DHT22;5217;43.960;10.954;2023-04-24T11:29:46;20.10;95.80
10344;DHT22;5217;43.960;10.954;2023-04-24T11:32:18;20.20;95.70
10344;DHT22;5217;43.960;10.954;2023-04-24T11:34:48;20.20;95.50
10344;DHT22;5217;43.960;10.954;2023-04-24T11:37:17;20.30;95.50
10344;DHT22;5217;43.960;10.954;2023-04-24T11:39:45;20.20;95.50
10344;DHT22;5217;43.960;10.954;2023-04-24T11:42:15;20.30;95.10
10344;DHT22;5217;43.960;10.954;2023-04-24T11:44:46;20.30;94.60
10344;DHT22;5217;43.960;10.954;2023-04-24T11:47:15;20.30;96.10
10344;DHT22;5217;43.960;10.954;2023-04-24T11:49:43;20.30;95.60
10344;DHT22;5217;43.960;10.954;2023-04-24T11:52:15;20.20;95.10
10344;DHT22;5217;43.960;10.954;2023-04-24T11:54:48;20.20;95.50
10344;DHT22;5217;43.960;10.954;2023-04-24T11:57:18;20.20;95.90
10344;DHT22;5217;43.960;10.954;2023-04-24T11:59:50;20.30;95.60
10344;DHT22;5217;43.960;10.954;2023-04-24T12:02:22;20.30;95.30
10344;DHT22;5217;43.960;10.954;2023-04-24T12:04:52;20.30;95.10
10344;DHT22;5217;43.960;10.954;2023-04-24T12:07:21;20.30;95.10
10344;DHT22;5217;43.960;10.954;2023-04-24T12:09:56;20.40;95.40
10344;DHT22;5217;43.960;10.954;2023-04-24T12:12:26;20.40;95.20
10344;DHT22;5217;43.960;10.954;2023-04-24T12:14:57;20.50;95.40
10344;DHT22;5217;43.960;10.954;2023-04-24T12:17:27;20.50;95.00
10344;DHT22;5217;43.960;10.954;2023-04-24T12:20:01;20.60;95.40
10344;DHT22;5217;43.960;10.954;2023-04-24T12:22:43;20.70;95.60
10344;DHT22;5217;43.960;10.954;2023-04-24T12:25:13;20.70;95.60
10344;DHT22;5217;43.960;10.954;2023-04-24T12:27:42;20.80;95.60
10344;DHT22;5217;43.960;10.954;2023-04-24T12:30:14;20.70;95.60
10344;DHT22;5217;43.960;10.954;2023-04-24T12:32:43;20.70;95.70
10344;DHT22;5217;43.960;10.954;2023-04-24T12:35:12;20.70;95.70
10344;DHT22;5217;43.960;10.954;2023-04-24T12:37:42;20.60;95.70
10344;DHT22;5217;43.960;10.954;2023-04-24T12:40:14;20.60;95.70
10344;DHT22;5217;43.960;10.954;2023-04-24T12:42:43;20.60;95.70
10344;DHT22;5217;43.960;10.954;2023-04-24T12:45:14;20.60;95.60
10344;DHT22;5217;43.960;10.954;2023-04-24T12:47:43;20.60;95.50
10344;DHT22;5217;43.960;10.954;2023-04-24T12:50:13;20.60;95.80
10344;DHT22;5217;43.960;10.954;2023-04-24T12:52:43;20.70;96.20
10344;DHT22;5217;43.960;10.954;2023-04-24T12:55:12;20.80;96.10
10344;DHT22;5217;43.960;10.954;2023-04-24T12:57:40;20.70;95.90
10344;DHT22;5217;43.960;10.954;2023-04-24T13:00:09;20.70;96.00
10344;DHT22;5217;43.960;10.954;2023-04-24T13:02:39;20.60;95.90
10344;DHT22;5217;43.960;10.954;2023-04-24T13:05:08;20.60;96.10
10344;DHT22;5217;43.960;10.954;2023-04-24T13:07:38;20.60;96.10
10344;DHT22;5217;43.960;10.954;2023-04-24T13:13:06;20.50;95.70
10344;DHT22;5217;43.960;10.954;2023-04-24T13:15:35;20.50;95.90
10344;DHT22;5217;43.960;10.954;2023-04-24T13:18:03;20.50;95.90
10344;DHT22;5217;43.960;10.954;2023-04-24T13:20:32;20.50;95.90
10344;DHT22;5217;43.960;10.954;2023-04-24T13:23:02;20.50;95.70
10344;DHT22;5217;43.960;10.954;2023-04-24T13:25:35;20.50;95.80
10344;DHT22;5217;43.960;10.954;2023-04-24T13:28:05;20.40;96.10
10344;DHT22;5217;43.960;10.954;2023-04-24T13:30:34;20.40;95.90
10344;DHT22;5217;43.960;10.954;2023-04-24T13:33:02;20.40;95.80
10344;DHT22;5217;43.960;10.954;2023-04-24T13:35:31;20.40;95.70
10344;DHT22;5217;43.960;10.954;2023-04-24T13:37:59;20.40;95.70
10344;DHT22;5217;43.960;10.954;2023-04-24T13:40:33;20.40;95.90
10344;DHT22;5217;43.960;10.954;2023-04-24T13:43:01;20.40;96.40
10344;DHT22;5217;43.960;10.954;2023-04-24T13:45:31;20.30;97.00
10344;DHT22;5217;43.960;10.954;2023-04-24T13:48:00;20.30;97.90
10344;DHT22;5217;43.960;10.954;2023-04-24T13:50:30;20.20;98.10
10344;DHT22;5217;43.960;10.954;2023-04-24T13:52:58;20.10;97.40
10344;DHT22;5217;43.960;10.954;2023-04-24T13:55:28;20.10;97.00
10344;DHT22;5217;43.960;10.954;2023-04-24T13:57:57;20.00;97.10
10344;DHT22;5217;43.960;10.954;2023-04-24T14:00:26;20.00;97.40
10344;DHT22;5217;43.960;10.954;2023-04-24T14:02:56;20.00;97.50
10344;DHT22;5217;43.960;10.954;2023-04-24T14:05:24;20.00;98.20
10344;DHT22;5217;43.960;10.954;2023-04-24T14:07:53;20.10;98.30
10344;DHT22;5217;43.960;10.954;2023-04-24T14:10:21;20.10;98.60
10344;DHT22;5217;43.960;10.954;2023-04-24T14:12:51;20.20;98.90
10344;DHT22;5217;43.960;10.954;2023-04-24T14:15:20;20.20;98.80
10344;DHT22;5217;43.960;10.954;2023-04-24T14:17:48;20.20;98.50
10344;DHT22;5217;43.960;10.954;2023-04-24T14:20:19;20.20;98.00
10344;DHT22;5217;43.960;10.954;2023-04-24T14:22:47;20.10;97.70
10344;DHT22;5217;43.960;10.954;2023-04-24T14:25:15;20.10;97.30
10344;DHT22;5217;43.960;10.954;2023-04-24T14:27:44;20.10;97.30
10344;DHT22;5217;43.960;10.954;2023-04-24T14:30:14;20.10;97.60
10344;DHT22;5217;43.960;10.954;2023-04-24T14:32:45;20.10;98.10
10344;DHT22;5217;43.960;10.954;2023-04-24T14:35:14;20.10;98.20
10344;DHT22;5217;43.960;10.954;2023-04-24T14:37:44;20.10;98.60
10344;DHT22;5217;43.960;10.954;2023-04-24T14:40:12;20.10;99.20
10344;DHT22;5217;43.960;10.954;2023-04-24T14:43:00;20.10;99.50
10344;DHT22;5217;43.960;10.954;2023-04-24T14:45:29;20.10;99.60
10344;DHT22;5217;43.960;10.954;2023-04-24T14:47:57;20.20;99.80
10344;DHT22;5217;43.960;10.954;2023-04-24T14:50:26;20.20;99.80
10344;DHT22;5217;43.960;10.954;2023-04-24T14:52:56;20.20;99.70
10344;DHT22;5217;43.960;10.954;2023-04-24T14:55:25;20.20;99.60
10344;DHT22;5217;43.960;10.954;2023-04-24T14:57:54;20.20;99.30
10344;DHT22;5217;43.960;10.954;2023-04-24T15:00:22;20.20;99.30
10344;DHT22;5217;43.960;10.954;2023-04-24T15:02:51;20.30;99.40
10344;DHT22;5217;43.960;10.954;2023-04-24T15:05:19;20.30;99.20
10344;DHT22;5217;43.960;10.954;2023-04-24T15:07:49;20.30;99.00
10344;DHT22;5217;43.960;10.954;2023-04-24T15:10:19;20.30;98.90
10344;DHT22;5217;43.960;10.954;2023-04-24T15:12:49;20.30;98.70
10344;DHT22;5217;43.960;10.954;2023-04-24T15:15:18;20.30;98.80
10344;DHT22;5217;43.960;10.954;2023-04-24T15:17:47;20.40;98.80
10344;DHT22;5217;43.960;10.954;2023-04-24T15:20:15;20.40;98.00
10344;DHT22;5217;43.960;10.954;2023-04-24T15:22:45;20.30;97.10
10344;DHT22;5217;43.960;10.954;2023-04-24T15:25:13;20.30;96.60
10344;DHT22;5217;43.960;10.954;2023-04-24T15:27:44;20.40;97.20
10344;DHT22;5217;43.960;10.954;2023-04-24T15:30:13;20.40;97.80
10344;DHT22;5217;43.960;10.954;2023-04-24T15:32:42;20.30;98.00
10344;DHT22;5217;43.960;10.954;2023-04-24T15:35:10;20.40;98.20
10344;DHT22;5217;43.960;10.954;2023-04-24T15:37:38;20.40;98.10
10344;DHT22;5217;43.960;10.954;2023-04-24T15:40:08;20.40;97.30
10344;DHT22;5217;43.960;10.954;2023-04-24T15:42:38;20.30;96.80
10344;DHT22;5217;43.960;10.954;2023-04-24T15:45:09;20.30;96.10